• Join FlightAware (Why Join?)
  • Login
  • US Flag 
02:29AM EDT


 

Airport Tracker/Info


-or-


 

Live Flight TrackerFlight Track Log ✈ DAL6232 ✈ 04-May-2013 ✈ CYHZ - KLGA

Flight Track Log - Related Links

Times and Time Zones

All times are in EDT time to prevent confusion due to time zone crossing. See the DAL6232 flight status page for this flight to view local times or setup timezone preferences in your user account.

Time Position Orientation Groundspeed Altitude Reporting Facility
EDT Latitude Longitude Course Direction KTS MPH feet Rate Location/Type
06:24AM 44.8833 -63.5000 19° North 140 161 1,600  Level Moncton Center
06:25AM 44.9167 -63.4833 19° North 190 219 3,500 1,680 Climbing Moncton Center
06:26AM 44.9333 -63.5667 286° West 280 322 5,000 2,280 Climbing Moncton Center
06:27AM 44.9000 -63.6833 248° West 300 345 8,100 2,760 Climbing Moncton Center
06:28AM 44.9000 -63.8000 270° West 300 345 10,600 2,040 Climbing Moncton Center
06:29AM 44.9000 -63.9167 270° West 330 380 12,200 1,740 Climbing Moncton Center
06:30AM 44.9000 -64.0667 270° West 360 414 14,100 1,980 Climbing Moncton Center
06:31AM 44.9000 -64.2333 270° West 380 437 16,200 2,040 Climbing Moncton Center
06:32AM 44.9000 -64.3667 270° West 390 449 18,200 1,800 Climbing Moncton Center
06:33AM 44.9000 -64.5333 270° West 390 449 19,900 1,740 Climbing Moncton Center
06:34AM 44.9000 -64.6833 270° West 390 449 21,700 1,620 Climbing Moncton Center
06:35AM 44.9000 -64.8500 270° West 400 460 23,200 1,500 Climbing Moncton Center
06:36AM 44.9000 -65.0167 270° West 400 460 24,700 1,500 Climbing Moncton Center
06:37AM 44.9000 -65.1500 270° West 410 472 26,200 1,200 Climbing Moncton Center
06:38AM 44.9000 -65.3167 270° West 420 483 27,200 960 Climbing Moncton Center
06:39AM 44.9000 -65.4833 270° West 430 495 28,200 960 Climbing Moncton Center
06:40AM 44.9000 -65.6667 270° West 430 495 29,200 780 Climbing Moncton Center
06:41AM 44.9000 -65.8333 270° West 440 506 29,800 600 Climbing Moncton Center
06:42AM 44.9000 -66.0333 270° West 450 518 30,500 660 Climbing Moncton Center
06:43AM 44.8833 -66.1833 261° West 460 529 31,200 900 Climbing Moncton Center
06:44AM 44.8833 -66.3833 270° West 460 529 32,300 840 Climbing Moncton Center
06:45AM 44.8833 -66.5667 270° West 460 529 32,900 660 Climbing Moncton Center
06:46AM 44.8833 -66.7500 270° West 460 529 33,700 720 Climbing Moncton Center
06:47AM 44.8833 -66.9167 270° West 470 541 34,400 660 Climbing Moncton Center
06:48AM 44.8667 -67.1167 263° West 470 541 35,100 660 Climbing Moncton Center
06:49AM 44.8667 -67.3000 270° West 470 541 35,800 660 Climbing Moncton Center
06:50AM 44.8833 -67.4667 278° West 470 541 36,500 600 Climbing Moncton Center
06:51AM 44.8819 -67.6258 269° West 469 540 37,000 600 Climbing Boston Center
06:52AM 44.8789 -67.8050 269° West 469 540 37,700 480 Climbing Boston Center
06:53AM 44.8733 -67.9811 268° West 464 534 38,000 120 Climbing Boston Center
06:54AM 44.8664 -68.1869 267° West 474 545 38,000  Level Boston Center
06:55AM 44.8625 -68.3658 268° West 474 545 38,000  Level Boston Center
06:56AM 44.8561 -68.5450 267° West 469 540 38,000  Level Boston Center
06:57AM 44.8494 -68.7242 267° West 464 534 38,000  Level Boston Center
06:58AM 44.8258 -68.9014 259° West 459 528 38,000  Level Boston Center
06:59AM 44.7742 -69.0508 244° Southwest 464 534 38,000  Level Boston Center
07:00AM 44.7100 -69.2122 241° Southwest 469 540 38,000  Level Boston Center
07:01AM 44.6319 -69.4092 241° Southwest 479 551 38,000  Level Boston Center
07:02AM 44.5672 -69.5697 241° Southwest 484 557 38,000  Level Boston Center
07:03AM 44.5044 -69.7300 241° Southwest 484 557 38,000  Level Boston Center
07:04AM 44.4375 -69.8931 240° Southwest 484 557 38,000  Level Boston Center
07:05AM 44.3681 -70.0675 241° Southwest 478 550 38,000  Level Boston Center
07:06AM 44.3025 -70.2267 240° Southwest 478 550 38,000  Level Boston Center
07:07AM 44.2367 -70.3856 240° Southwest 478 550 38,000  Level Boston Center
07:08AM 44.1708 -70.5472 240° Southwest 478 550 38,000  Level Boston Center
07:09AM 44.1067 -70.7053 241° Southwest 478 550 38,000  Level Boston Center
07:10AM 44.0400 -70.8633 240° Southwest 478 550 38,000  Level Boston Center
07:11AM 43.9733 -71.0178 239° Southwest 478 550 38,000 -120 Level Boston Center
07:12AM 43.9086 -71.1750 240° Southwest 478 550 37,800 -600 Descending Boston Center
07:13AM 43.8372 -71.3406 239° Southwest 484 557 36,800 -1,080 Descending Boston Center
07:14AM 43.7719 -71.5000 240° Southwest 489 563 35,700 -960 Descending Boston Center
07:15AM 43.7106 -71.6417 239° Southwest 489 563 34,900 -900 Descending Boston Center
07:16AM 43.6469 -71.8003 241° Southwest 489 563 33,900 -1,200 Descending Boston Center
07:17AM 43.5769 -71.9586 239° Southwest 489 563 32,500 -1,500 Descending Boston Center
07:18AM 43.5044 -72.1194 238° Southwest 489 563 31,000 -1,500 Descending Boston Center
07:19AM 43.4361 -72.2828 240° Southwest 489 563 29,500 -1,500 Descending Boston Center
07:20AM 43.3675 -72.4400 239° Southwest 489 563 28,000 -780 Descending Boston Center
07:21AM 43.2964 -72.5942 238° Southwest 489 563 28,000  Level Boston Center
07:22AM 43.2294 -72.7450 239° Southwest 484 557 28,000  Level Boston Center
07:23AM 43.1644 -72.8956 239° Southwest 479 551 28,000 -300 Level Boston Center
07:24AM 43.0947 -73.0486 238° Southwest 474 545 27,500 -900 Descending Boston Center
07:25AM 43.0272 -73.1983 238° Southwest 474 545 26,300 -780 Descending Boston Center
07:26AM 42.9511 -73.3592 237° Southwest 474 545 26,000 -180 Descending Boston Center
07:27AM 42.8831 -73.5056 238° Southwest 474 545 26,000 -420 Level Boston Center
07:29AM 42.8211 -73.6489 240° Southwest 463 533 25,100 -960 Descending Boston Center
07:30AM 42.7175 -73.7853 224° Southwest 442 509 24,000 -840 Descending Boston Center
07:31AM 42.5967 -73.7769 177° South 403 464 23,500 -1,020 Descending Boston Center
07:32AM 42.4742 -73.7489 170° South 411 473 22,000 -1,500 Descending Boston Center
07:33AM 42.3536 -73.7269 172° South 423 487 20,500 -1,500 Descending Boston Center
07:34AM 42.2350 -73.7047 172° South 434 499 19,000 -1,260 Descending Boston Center
07:35AM 42.1306 -73.7111 183° South 426 490 18,000 -540 Descending Boston Center
07:36AM 42.0075 -73.7225 184° South 414 476 18,000 -120 Level Boston Center
07:37AM 41.9053 -73.7372 186° South 414 476 17,800 -1,200 Descending Boston Center
07:38AM 41.7864 -73.7514 185° South 402 463 15,700 -2,040 Descending Boston Center
07:39AM 41.6842 -73.7633 185° South 390 449 13,800 -1,980 Descending Boston Center
07:40AM 41.5881 -73.7722 184° South 360 414 11,800 -1,620 Descending Boston Center
07:41AM 41.5000 -73.7833 185° South 300 345 10,600 -1,140 Descending New York TRACON
07:42AM 41.4333 -73.8000 191° South 293 337 9,700 -1,020 Descending New York TRACON
07:43AM 41.3333 -73.7833 173° South 288 331 8,600 -960 Descending New York TRACON
07:44AM 41.2667 -73.7333 151° Southeast 279 321 7,700 -1,020 Descending New York TRACON
07:45AM 41.2167 -73.6833 143° Southeast 280 322 6,700 -1,080 Descending New York TRACON
07:46AM 41.1333 -73.6500 163° South 282 325 5,600 -1,020 Descending New York TRACON
07:47AM 41.0667 -73.6333 169° South 267 307 4,700 -840 Descending New York TRACON
07:47AM 41.0000 -73.6167 169° South 256 295 4,100 -420 Descending New York TRACON
07:48AM 40.9333 -73.6333 191° South 277 319 4,000 -420 Descending New York TRACON
07:50AM 40.8667 -73.6833 210° Southwest 263 303 3,300 -540 Descending New York TRACON
07:50AM 40.8167 -73.7167 207° Southwest 228 262 3,000 -420 Descending New York TRACON
07:51AM 40.7667 -73.7500 207° Southwest 191 220 2,600 -720 Descending New York TRACON
07:52AM 40.7500 -73.8000 246° West 160 184 1,600 -1,020 Descending New York TRACON
07:53AM 40.7667 -73.8500 294° West 146 168 600 -1,020 Descending New York TRACON
07:55AM 40.7667 -73.8667 180° South  Level FlightAware Approximate
08:02AM 40.7772 -73.8726 180° South  Level Estimated
08:03AM 40.7772 -73.8726 180° South  Level Estimated